Terminal Aerodrome Forecast
Issued by NWS Sioux Falls, SD

Home | Current Version | Previous Version | Graphics & Text | Print | Product List | Glossary On
Versions: 1 2 3 4 5 6 7 8 9 10 11 12 13 14 15 16 17 18 19
000
FTUS43 KFSD 211100 CCA
TAFHON
TAF COR
KHON 211140Z 2112/2212 13005KT P6SM FEW100
      TEMPO 2112/2114 5SM BR SCT005
     FM211600 16012KT P6SM SCT035 BKN150
     FM220300 22004KT P6SM SCT200
     FM221000 35010KT P6SM SKC=

USA.gov is the U.S. government's official web portal to all federal, state and local government web resources and services.